sensor_id;sensor_type;location;lat;lon;timestamp;pressure;altitude;pressure_sealevel;temperature;humidity
1401;BME280;46518;48.842;8.926;2024-03-08T00:01:13;97010.63;;;4.62;92.56
1401;BME280;46518;48.842;8.926;2024-03-08T00:03:43;97019.66;;;4.60;92.50
1401;BME280;46518;48.842;8.926;2024-03-08T00:06:11;97004.25;;;4.51;93.37
1401;BME280;46518;48.842;8.926;2024-03-08T00:08:41;97007.44;;;4.53;92.83
1401;BME280;46518;48.842;8.926;2024-03-08T00:11:10;96999.69;;;4.47;93.31
1401;BME280;46518;48.842;8.926;2024-03-08T00:13:39;97012.03;;;4.58;93.08
1401;BME280;46518;48.842;8.926;2024-03-08T00:16:07;97009.25;;;4.53;93.11
1401;BME280;46518;48.842;8.926;2024-03-08T00:18:36;97012.66;;;4.53;92.88
1401;BME280;46518;48.842;8.926;2024-03-08T00:21:04;96998.25;;;4.51;93.09
1401;BME280;46518;48.842;8.926;2024-03-08T00:23:33;96999.13;;;4.38;92.39
1401;BME280;46518;48.842;8.926;2024-03-08T00:26:03;97002.28;;;4.47;92.69
1401;BME280;46518;48.842;8.926;2024-03-08T00:28:33;97011.09;;;4.46;92.90
1401;BME280;46518;48.842;8.926;2024-03-08T00:31:02;96997.66;;;4.49;92.54
1401;BME280;46518;48.842;8.926;2024-03-08T00:33:30;96997.91;;;4.41;92.43
1401;BME280;46518;48.842;8.926;2024-03-08T00:35:59;97001.88;;;4.50;92.03
1401;BME280;46518;48.842;8.926;2024-03-08T00:38:27;96995.03;;;4.49;91.77
1401;BME280;46518;48.842;8.926;2024-03-08T00:40:55;96994.25;;;4.48;91.72
1401;BME280;46518;48.842;8.926;2024-03-08T00:43:25;96983.94;;;4.28;91.28
1401;BME280;46518;48.842;8.926;2024-03-08T00:45:53;96971.94;;;4.27;91.99
1401;BME280;46518;48.842;8.926;2024-03-08T00:48:22;96976.53;;;4.25;93.04
1401;BME280;46518;48.842;8.926;2024-03-08T00:50:51;96974.97;;;4.24;92.31
1401;BME280;46518;48.842;8.926;2024-03-08T00:53:19;96983.78;;;4.17;93.21
1401;BME280;46518;48.842;8.926;2024-03-08T00:55:48;96987.97;;;4.24;93.14
1401;BME280;46518;48.842;8.926;2024-03-08T00:58:16;96987.56;;;4.27;92.50
1401;BME280;46518;48.842;8.926;2024-03-08T01:00:46;96971.34;;;4.19;92.68
1401;BME280;46518;48.842;8.926;2024-03-08T01:03:14;96978.19;;;4.20;92.73
1401;BME280;46518;48.842;8.926;2024-03-08T01:05:42;96979.41;;;4.10;92.60
1401;BME280;46518;48.842;8.926;2024-03-08T01:08:11;96976.22;;;4.08;92.82
1401;BME280;46518;48.842;8.926;2024-03-08T01:10:39;96973.00;;;4.13;92.94
1401;BME280;46518;48.842;8.926;2024-03-08T01:13:07;96962.41;;;4.08;94.03
1401;BME280;46518;48.842;8.926;2024-03-08T01:15:36;96962.03;;;4.04;94.03
1401;BME280;46518;48.842;8.926;2024-03-08T01:18:09;96959.97;;;4.06;93.35
1401;BME280;46518;48.842;8.926;2024-03-08T01:20:38;96957.97;;;4.08;93.73
1401;BME280;46518;48.842;8.926;2024-03-08T01:23:07;96954.22;;;3.98;93.19
1401;BME280;46518;48.842;8.926;2024-03-08T01:25:35;96948.41;;;4.02;92.84
1401;BME280;46518;48.842;8.926;2024-03-08T01:28:06;96946.59;;;4.03;93.20
1401;BME280;46518;48.842;8.926;2024-03-08T01:30:36;96942.78;;;3.99;92.80
1401;BME280;46518;48.842;8.926;2024-03-08T01:33:05;96932.44;;;3.85;93.09
1401;BME280;46518;48.842;8.926;2024-03-08T01:35:35;96938.63;;;3.91;93.46
1401;BME280;46518;48.842;8.926;2024-03-08T01:38:03;96940.63;;;3.96;93.34
1401;BME280;46518;48.842;8.926;2024-03-08T01:40:32;96934.63;;;3.88;93.52
1401;BME280;46518;48.842;8.926;2024-03-08T01:43:17;96930.09;;;3.77;92.99
1401;BME280;46518;48.842;8.926;2024-03-08T01:45:45;96926.66;;;3.83;93.09
1401;BME280;46518;48.842;8.926;2024-03-08T01:48:14;96926.28;;;3.80;92.70
1401;BME280;46518;48.842;8.926;2024-03-08T01:50:45;96919.09;;;3.68;92.72
1401;BME280;46518;48.842;8.926;2024-03-08T01:53:14;96916.13;;;3.65;93.42
1401;BME280;46518;48.842;8.926;2024-03-08T01:55:44;96909.91;;;3.66;92.48
1401;BME280;46518;48.842;8.926;2024-03-08T01:58:13;96900.31;;;3.60;92.63
1401;BME280;46518;48.842;8.926;2024-03-08T02:00:44;96898.34;;;3.55;92.99
1401;BME280;46518;48.842;8.926;2024-03-08T02:03:16;96896.34;;;3.44;93.37
1401;BME280;46518;48.842;8.926;2024-03-08T02:05:45;96905.34;;;3.48;93.32
1401;BME280;46518;48.842;8.926;2024-03-08T02:08:14;96896.53;;;3.49;93.56
1401;BME280;46518;48.842;8.926;2024-03-08T02:10:44;96899.34;;;3.48;93.07
1401;BME280;46518;48.842;8.926;2024-03-08T02:13:12;96891.56;;;3.48;93.03
1401;BME280;46518;48.842;8.926;2024-03-08T02:15:51;96886.00;;;3.31;92.57
1401;BME280;46518;48.842;8.926;2024-03-08T02:18:20;96883.38;;;3.37;92.42
1401;BME280;46518;48.842;8.926;2024-03-08T02:20:50;96877.78;;;3.34;92.62
1401;BME280;46518;48.842;8.926;2024-03-08T02:23:19;96878.19;;;3.31;92.87
1401;BME280;46518;48.842;8.926;2024-03-08T02:25:47;96879.22;;;3.30;92.78
1401;BME280;46518;48.842;8.926;2024-03-08T02:28:16;96877.41;;;3.23;92.73
1401;BME280;46518;48.842;8.926;2024-03-08T02:30:45;96864.81;;;3.14;92.42
1401;BME280;46518;48.842;8.926;2024-03-08T02:33:15;96864.41;;;3.23;92.09
1401;BME280;46518;48.842;8.926;2024-03-08T02:35:45;96864.81;;;3.14;92.39
1401;BME280;46518;48.842;8.926;2024-03-08T02:38:16;96867.59;;;3.19;92.97
1401;BME280;46518;48.842;8.926;2024-03-08T02:40:46;96869.44;;;3.12;92.44
1401;BME280;46518;48.842;8.926;2024-03-08T02:43:16;96863.63;;;3.16;92.30
1401;BME280;46518;48.842;8.926;2024-03-08T02:45:44;96860.44;;;3.08;93.20
1401;BME280;46518;48.842;8.926;2024-03-08T02:48:14;96856.66;;;3.03;93.08
1401;BME280;46518;48.842;8.926;2024-03-08T02:50:43;96855.84;;;3.03;93.02
1401;BME280;46518;48.842;8.926;2024-03-08T02:53:14;96850.84;;;3.08;93.01
1401;BME280;46518;48.842;8.926;2024-03-08T02:55:43;96846.84;;;2.99;93.26
1401;BME280;46518;48.842;8.926;2024-03-08T02:58:11;96845.69;;;2.95;93.18
1401;BME280;46518;48.842;8.926;2024-03-08T03:00:40;96848.28;;;2.95;92.88
1401;BME280;46518;48.842;8.926;2024-03-08T03:03:12;96842.84;;;3.03;93.30
1401;BME280;46518;48.842;8.926;2024-03-08T03:05:40;96844.84;;;3.01;93.33
1401;BME280;46518;48.842;8.926;2024-03-08T03:08:16;96847.25;;;3.02;93.05
1401;BME280;46518;48.842;8.926;2024-03-08T03:10:45;96840.88;;;2.92;93.88
1401;BME280;46518;48.842;8.926;2024-03-08T03:13:13;96836.88;;;2.89;93.71
1401;BME280;46518;48.842;8.926;2024-03-08T03:15:42;96843.47;;;2.92;93.87
1401;BME280;46518;48.842;8.926;2024-03-08T03:18:10;96850.28;;;2.86;93.73
1401;BME280;46518;48.842;8.926;2024-03-08T03:20:39;96835.09;;;2.90;94.91
1401;BME280;46518;48.842;8.926;2024-03-08T03:23:09;96827.50;;;2.88;94.21
1401;BME280;46518;48.842;8.926;2024-03-08T03:25:43;96831.91;;;2.88;93.96
1401;BME280;46518;48.842;8.926;2024-03-08T03:28:13;96826.47;;;2.89;94.42
1401;BME280;46518;48.842;8.926;2024-03-08T03:30:45;96830.09;;;2.88;94.68
1401;BME280;46518;48.842;8.926;2024-03-08T03:33:14;96815.69;;;2.86;94.92
1401;BME280;46518;48.842;8.926;2024-03-08T03:35:43;96818.50;;;2.84;96.00
1401;BME280;46518;48.842;8.926;2024-03-08T03:38:12;96812.50;;;2.90;95.28
1401;BME280;46518;48.842;8.926;2024-03-08T03:40:43;96809.13;;;2.76;95.32
1401;BME280;46518;48.842;8.926;2024-03-08T03:43:12;96811.72;;;2.90;95.48
1401;BME280;46518;48.842;8.926;2024-03-08T03:45:41;96814.50;;;2.88;96.14
1401;BME280;46518;48.842;8.926;2024-03-08T03:48:09;96812.09;;;2.87;95.10
1401;BME280;46518;48.842;8.926;2024-03-08T03:50:38;96811.31;;;2.86;95.73
1401;BME280;46518;48.842;8.926;2024-03-08T03:53:07;96812.31;;;2.78;95.69
1401;BME280;46518;48.842;8.926;2024-03-08T03:55:37;96816.50;;;2.86;95.88
1401;BME280;46518;48.842;8.926;2024-03-08T03:58:09;96806.09;;;2.86;95.25
1401;BME280;46518;48.842;8.926;2024-03-08T04:00:38;96808.91;;;2.85;95.03
1401;BME280;46518;48.842;8.926;2024-03-08T04:03:07;96810.31;;;2.87;94.79
1401;BME280;46518;48.842;8.926;2024-03-08T04:05:36;96810.13;;;2.75;94.83
1401;BME280;46518;48.842;8.926;2024-03-08T04:08:05;96807.53;;;2.69;95.39
1401;BME280;46518;48.842;8.926;2024-03-08T04:10:33;96802.53;;;2.74;94.98
1401;BME280;46518;48.842;8.926;2024-03-08T04:13:01;96797.31;;;2.74;94.77
1401;BME280;46518;48.842;8.926;2024-03-08T04:15:32;96797.75;;;2.71;94.07
1401;BME280;46518;48.842;8.926;2024-03-08T04:18:00;96799.97;;;2.67;94.39
1401;BME280;46518;48.842;8.926;2024-03-08T04:20:29;96790.97;;;2.63;94.74
1401;BME280;46518;48.842;8.926;2024-03-08T04:22:57;96783.78;;;2.58;94.39
1401;BME280;46518;48.842;8.926;2024-03-08T04:25:26;96788.97;;;2.65;94.53
1401;BME280;46518;48.842;8.926;2024-03-08T04:27:54;96802.16;;;2.64;94.09
1401;BME280;46518;48.842;8.926;2024-03-08T04:30:23;96793.56;;;2.63;94.22
1401;BME280;46518;48.842;8.926;2024-03-08T04:32:52;96782.19;;;2.57;94.46
1401;BME280;46518;48.842;8.926;2024-03-08T04:35:31;96788.56;;;2.62;94.53
1401;BME280;46518;48.842;8.926;2024-03-08T04:37:59;96788.16;;;2.58;94.37
1401;BME280;46518;48.842;8.926;2024-03-08T04:40:27;96787.34;;;2.64;94.06
1401;BME280;46518;48.842;8.926;2024-03-08T04:42:55;96778.97;;;2.55;94.74
1401;BME280;46518;48.842;8.926;2024-03-08T04:45:23;96783.97;;;2.57;95.09
1401;BME280;46518;48.842;8.926;2024-03-08T04:47:56;96776.56;;;2.61;95.22
1401;BME280;46518;48.842;8.926;2024-03-08T04:50:25;96778.16;;;2.62;94.59
1401;BME280;46518;48.842;8.926;2024-03-08T04:52:56;96779.19;;;2.61;94.20
1401;BME280;46518;48.842;8.926;2024-03-08T04:55:24;96775.78;;;2.60;95.19
1401;BME280;46518;48.842;8.926;2024-03-08T04:57:52;96780.56;;;2.63;94.60
1401;BME280;46518;48.842;8.926;2024-03-08T05:00:20;96778.75;;;2.57;95.20
1401;BME280;46518;48.842;8.926;2024-03-08T05:02:49;96778.16;;;2.62;94.86
1401;BME280;46518;48.842;8.926;2024-03-08T05:05:21;96770.41;;;2.55;95.47
1401;BME280;46518;48.842;8.926;2024-03-08T05:07:49;96762.59;;;2.48;94.62
1401;BME280;46518;48.842;8.926;2024-03-08T05:10:18;96767.38;;;2.58;95.18
1401;BME280;46518;48.842;8.926;2024-03-08T05:12:46;96769.78;;;2.59;94.24
1401;BME280;46518;48.842;8.926;2024-03-08T05:15:14;96764.19;;;2.56;94.13
1401;BME280;46518;48.842;8.926;2024-03-08T05:17:43;96762.38;;;2.56;94.50
1401;BME280;46518;48.842;8.926;2024-03-08T05:20:11;96771.00;;;2.50;94.58
1401;BME280;46518;48.842;8.926;2024-03-08T05:22:41;96767.81;;;2.48;94.17
1401;BME280;46518;48.842;8.926;2024-03-08T05:25:09;96765.44;;;2.40;94.50
1401;BME280;46518;48.842;8.926;2024-03-08T05:27:39;96771.78;;;2.51;93.99
1401;BME280;46518;48.842;8.926;2024-03-08T05:30:07;96768.59;;;2.55;94.13
1401;BME280;46518;48.842;8.926;2024-03-08T05:32:42;96751.81;;;2.51;94.14
1401;BME280;46518;48.842;8.926;2024-03-08T05:35:11;96746.84;;;2.43;94.12
1401;BME280;46518;48.842;8.926;2024-03-08T05:37:40;96756.63;;;2.48;93.96
1401;BME280;46518;48.842;8.926;2024-03-08T05:40:10;96754.81;;;2.48;93.59
1401;BME280;46518;48.842;8.926;2024-03-08T05:42:44;96766.00;;;2.49;94.45
1401;BME280;46518;48.842;8.926;2024-03-08T05:45:15;96757.59;;;2.47;94.28
1401;BME280;46518;48.842;8.926;2024-03-08T05:47:43;96758.44;;;2.41;94.38
1401;BME280;46518;48.842;8.926;2024-03-08T05:50:13;96749.84;;;2.33;94.60
1401;BME280;46518;48.842;8.926;2024-03-08T05:52:43;96752.44;;;2.33;95.04
1401;BME280;46518;48.842;8.926;2024-03-08T05:55:12;96755.81;;;2.34;94.69
1401;BME280;46518;48.842;8.926;2024-03-08T05:57:41;96752.81;;;2.37;94.70
1401;BME280;46518;48.842;8.926;2024-03-08T06:00:10;96754.03;;;2.41;94.49
1401;BME280;46518;48.842;8.926;2024-03-08T06:02:39;96744.84;;;2.32;94.79
1401;BME280;46518;48.842;8.926;2024-03-08T06:05:09;96749.66;;;2.35;94.44
1401;BME280;46518;48.842;8.926;2024-03-08T06:07:37;96751.44;;;2.41;94.92
1401;BME280;46518;48.842;8.926;2024-03-08T06:10:08;96744.84;;;2.32;94.64
1401;BME280;46518;48.842;8.926;2024-03-08T06:12:40;96754.63;;;2.36;95.33
1401;BME280;46518;48.842;8.926;2024-03-08T06:15:09;96760.59;;;2.37;94.49
1401;BME280;46518;48.842;8.926;2024-03-08T06:17:42;96748.84;;;2.28;94.70
1401;BME280;46518;48.842;8.926;2024-03-08T06:20:11;96749.66;;;2.28;95.13
1401;BME280;46518;48.842;8.926;2024-03-08T06:22:40;96752.63;;;2.38;95.52
1401;BME280;46518;48.842;8.926;2024-03-08T06:25:09;96762.59;;;2.48;95.68
1401;BME280;46518;48.842;8.926;2024-03-08T06:27:38;96755.19;;;2.52;95.91
1401;BME280;46518;48.842;8.926;2024-03-08T06:30:08;96751.22;;;2.49;95.94
1401;BME280;46518;48.842;8.926;2024-03-08T06:32:37;96746.19;;;2.54;95.37
1401;BME280;46518;48.842;8.926;2024-03-08T06:35:06;96753.00;;;2.62;95.53
1401;BME280;46518;48.842;8.926;2024-03-08T06:37:35;96751.56;;;2.66;95.17
1401;BME280;46518;48.842;8.926;2024-03-08T06:40:03;96749.41;;;2.63;95.92
1401;BME280;46518;48.842;8.926;2024-03-08T06:42:32;96753.97;;;2.68;95.63
1401;BME280;46518;48.842;8.926;2024-03-08T06:45:02;96745.19;;;2.69;95.88
1401;BME280;46518;48.842;8.926;2024-03-08T06:47:33;96756.16;;;2.71;96.36
1401;BME280;46518;48.842;8.926;2024-03-08T06:50:02;96745.97;;;2.76;95.96
1401;BME280;46518;48.842;8.926;2024-03-08T06:52:30;96751.16;;;2.83;95.41
1401;BME280;46518;48.842;8.926;2024-03-08T06:54:59;96741.72;;;2.88;95.74
1401;BME280;46518;48.842;8.926;2024-03-08T06:57:28;96738.88;;;2.96;95.97
1401;BME280;46518;48.842;8.926;2024-03-08T06:59:57;96746.06;;;3.01;95.73
1401;BME280;46518;48.842;8.926;2024-03-08T07:02:25;96744.88;;;3.03;96.03
1401;BME280;46518;48.842;8.926;2024-03-08T07:04:55;96748.25;;;3.11;95.45
1401;BME280;46518;48.842;8.926;2024-03-08T07:07:23;96741.03;;;3.13;95.75
1401;BME280;46518;48.842;8.926;2024-03-08T07:09:53;96749.19;;;3.23;95.51
1401;BME280;46518;48.842;8.926;2024-03-08T07:12:23;96745.56;;;3.24;94.70
1401;BME280;46518;48.842;8.926;2024-03-08T07:14:53;96736.97;;;3.30;94.82
1401;BME280;46518;48.842;8.926;2024-03-08T07:17:21;96731.16;;;3.28;94.63
1401;BME280;46518;48.842;8.926;2024-03-08T07:19:51;96742.31;;;3.35;93.91
1401;BME280;46518;48.842;8.926;2024-03-08T07:22:22;96743.28;;;3.41;94.47
1401;BME280;46518;48.842;8.926;2024-03-08T07:24:50;96726.72;;;3.35;94.26
1401;BME280;46518;48.842;8.926;2024-03-08T07:27:37;96736.63;;;3.52;94.54
1401;BME280;46518;48.842;8.926;2024-03-08T07:30:06;96735.63;;;3.53;93.98
1401;BME280;46518;48.842;8.926;2024-03-08T07:32:36;96731.72;;;3.68;94.24
1401;BME280;46518;48.842;8.926;2024-03-08T07:35:06;96734.28;;;3.75;93.77
1401;BME280;46518;48.842;8.926;2024-03-08T07:37:36;96733.69;;;3.73;93.42
1401;BME280;46518;48.842;8.926;2024-03-08T07:40:05;96734.88;;;3.77;93.26
1401;BME280;46518;48.842;8.926;2024-03-08T07:42:34;96723.25;;;3.80;93.02
1401;BME280;46518;48.842;8.926;2024-03-08T07:45:05;96724.41;;;3.84;93.16
1401;BME280;46518;48.842;8.926;2024-03-08T07:47:35;96721.44;;;3.80;93.76
1401;BME280;46518;48.842;8.926;2024-03-08T07:50:04;96726.22;;;3.83;93.31
1401;BME280;46518;48.842;8.926;2024-03-08T07:52:36;96721.06;;;4.02;93.47
1401;BME280;46518;48.842;8.926;2024-03-08T07:55:05;96711.06;;;3.99;93.58
1401;BME280;46518;48.842;8.926;2024-03-08T07:57:33;96716.34;;;4.17;93.26
1401;BME280;46518;48.842;8.926;2024-03-08T08:00:01;96717.19;;;4.11;93.39
1401;BME280;46518;48.842;8.926;2024-03-08T08:02:34;96716.25;;;4.24;92.80
1401;BME280;46518;48.842;8.926;2024-03-08T08:05:06;96716.91;;;4.19;93.08
1401;BME280;46518;48.842;8.926;2024-03-08T08:07:39;96714.09;;;3.96;91.13
1401;BME280;46518;48.842;8.926;2024-03-08T08:10:08;96712.34;;;4.15;91.89
1401;BME280;46518;48.842;8.926;2024-03-08T08:12:43;96718.38;;;4.33;91.42
1401;BME280;46518;48.842;8.926;2024-03-08T08:15:12;96717.00;;;4.31;91.28
1401;BME280;46518;48.842;8.926;2024-03-08T08:17:42;96723.16;;;4.37;90.60
1401;BME280;46518;48.842;8.926;2024-03-08T08:20:10;96707.84;;;4.47;90.83
1401;BME280;46518;48.842;8.926;2024-03-08T08:22:41;96697.34;;;4.53;90.56
1401;BME280;46518;48.842;8.926;2024-03-08T08:25:10;96696.25;;;4.61;90.26
1401;BME280;46518;48.842;8.926;2024-03-08T08:27:41;96691.13;;;4.54;89.97
1401;BME280;46518;48.842;8.926;2024-03-08T08:30:13;96693.78;;;4.29;88.99
1401;BME280;46518;48.842;8.926;2024-03-08T08:32:41;96701.75;;;4.53;89.52
1401;BME280;46518;48.842;8.926;2024-03-08T08:35:10;96698.13;;;4.54;89.25
1401;BME280;46518;48.842;8.926;2024-03-08T08:37:41;96691.53;;;4.51;89.38
1401;BME280;46518;48.842;8.926;2024-03-08T08:40:12;96694.00;;;4.46;88.67
1401;BME280;46518;48.842;8.926;2024-03-08T08:42:45;96695.31;;;4.56;88.81
1401;BME280;46518;48.842;8.926;2024-03-08T08:45:16;96689.59;;;4.65;89.09
1401;BME280;46518;48.842;8.926;2024-03-08T08:47:51;96687.13;;;4.70;87.88
1401;BME280;46518;48.842;8.926;2024-03-08T08:50:19;96682.22;;;4.62;88.10
1401;BME280;46518;48.842;8.926;2024-03-08T08:52:52;96687.00;;;4.65;88.21
1401;BME280;46518;48.842;8.926;2024-03-08T08:55:21;96692.16;;;4.72;87.74
1401;BME280;46518;48.842;8.926;2024-03-08T08:57:53;96683.31;;;4.73;87.41
1401;BME280;46518;48.842;8.926;2024-03-08T09:00:25;96675.63;;;4.78;87.95
1401;BME280;46518;48.842;8.926;2024-03-08T09:02:55;96682.03;;;4.94;87.54
1401;BME280;46518;48.842;8.926;2024-03-08T09:05:25;96686.91;;;4.90;86.41
1401;BME280;46518;48.842;8.926;2024-03-08T09:07:55;96687.47;;;4.74;86.05
1401;BME280;46518;48.842;8.926;2024-03-08T09:10:24;96680.97;;;4.83;87.28
1401;BME280;46518;48.842;8.926;2024-03-08T09:12:56;96677.88;;;4.74;87.41
1401;BME280;46518;48.842;8.926;2024-03-08T09:15:24;96678.88;;;4.92;86.18
1401;BME280;46518;48.842;8.926;2024-03-08T09:17:55;96669.78;;;5.13;86.04
1401;BME280;46518;48.842;8.926;2024-03-08T09:20:24;96655.47;;;5.15;86.06
1401;BME280;46518;48.842;8.926;2024-03-08T09:22:52;96665.84;;;5.22;85.39
1401;BME280;46518;48.842;8.926;2024-03-08T09:25:23;96660.91;;;5.14;84.72
1401;BME280;46518;48.842;8.926;2024-03-08T09:27:52;96657.34;;;5.27;84.62
1401;BME280;46518;48.842;8.926;2024-03-08T09:30:21;96662.56;;;5.27;84.42
1401;BME280;46518;48.842;8.926;2024-03-08T09:32:49;96665.19;;;5.27;84.59
1401;BME280;46518;48.842;8.926;2024-03-08T09:35:19;96661.50;;;5.16;84.43
1401;BME280;46518;48.842;8.926;2024-03-08T09:37:47;96664.06;;;5.34;84.64
1401;BME280;46518;48.842;8.926;2024-03-08T09:40:18;96646.25;;;5.43;84.39
1401;BME280;46518;48.842;8.926;2024-03-08T09:42:50;96647.84;;;5.32;83.75
1401;BME280;46518;48.842;8.926;2024-03-08T09:45:20;96656.50;;;5.45;84.11
1401;BME280;46518;48.842;8.926;2024-03-08T09:47:51;96653.09;;;5.56;83.83
1401;BME280;46518;48.842;8.926;2024-03-08T09:50:20;96647.31;;;5.66;84.05
1401;BME280;46518;48.842;8.926;2024-03-08T09:52:49;96658.16;;;5.39;83.54
1401;BME280;46518;48.842;8.926;2024-03-08T09:55:18;96650.66;;;5.31;82.46
1401;BME280;46518;48.842;8.926;2024-03-08T09:57:53;96650.38;;;5.51;83.31
1401;BME280;46518;48.842;8.926;2024-03-08T10:00:39;96641.88;;;5.55;82.50
1401;BME280;46518;48.842;8.926;2024-03-08T10:03:11;96640.28;;;5.54;82.70
1401;BME280;46518;48.842;8.926;2024-03-08T10:05:41;96641.41;;;5.58;82.98
1401;BME280;46518;48.842;8.926;2024-03-08T10:08:11;96636.97;;;5.59;82.53
1401;BME280;46518;48.842;8.926;2024-03-08T10:10:40;96633.38;;;5.60;82.13
1401;BME280;46518;48.842;8.926;2024-03-08T10:13:10;96636.44;;;5.69;82.50
1401;BME280;46518;48.842;8.926;2024-03-08T10:15:39;96636.22;;;5.70;82.46
1401;BME280;46518;48.842;8.926;2024-03-08T10:18:08;96624.19;;;5.81;82.61
1401;BME280;46518;48.842;8.926;2024-03-08T10:20:37;96625.66;;;5.89;82.29
1401;BME280;46518;48.842;8.926;2024-03-08T10:23:07;96617.13;;;5.93;81.86
1401;BME280;46518;48.842;8.926;2024-03-08T10:25:38;96617.72;;;5.83;81.42
1401;BME280;46518;48.842;8.926;2024-03-08T10:28:07;96619.31;;;5.96;81.11
1401;BME280;46518;48.842;8.926;2024-03-08T10:30:36;96613.09;;;5.97;80.79
1401;BME280;46518;48.842;8.926;2024-03-08T10:33:04;96622.28;;;6.00;81.26
1401;BME280;46518;48.842;8.926;2024-03-08T10:35:33;96615.00;;;6.14;80.87
1401;BME280;46518;48.842;8.926;2024-03-08T10:38:05;96607.41;;;6.00;81.06
1401;BME280;46518;48.842;8.926;2024-03-08T10:40:38;96602.50;;;6.04;80.24
1401;BME280;46518;48.842;8.926;2024-03-08T10:43:16;96596.47;;;6.27;80.58
1401;BME280;46518;48.842;8.926;2024-03-08T10:46:02;96593.50;;;6.35;80.49
1401;BME280;46518;48.842;8.926;2024-03-08T10:48:39;96592.72;;;6.23;79.49
1401;BME280;46518;48.842;8.926;2024-03-08T10:51:11;96589.91;;;6.24;80.31
1401;BME280;46518;48.842;8.926;2024-03-08T10:53:40;96602.47;;;6.39;79.60
1401;BME280;46518;48.842;8.926;2024-03-08T10:56:09;96597.00;;;6.41;79.06
1401;BME280;46518;48.842;8.926;2024-03-08T10:58:38;96598.31;;;6.26;78.68
1401;BME280;46518;48.842;8.926;2024-03-08T11:01:07;96591.47;;;6.25;79.56
1401;BME280;46518;48.842;8.926;2024-03-08T11:03:44;96590.94;;;6.12;80.32
1401;BME280;46518;48.842;8.926;2024-03-08T11:06:17;96588.25;;;6.47;80.32
1401;BME280;46518;48.842;8.926;2024-03-08T11:08:51;96587.81;;;6.38;78.69
1401;BME280;46518;48.842;8.926;2024-03-08T11:11:26;96587.06;;;6.66;78.97
1401;BME280;46518;48.842;8.926;2024-03-08T11:14:01;96591.56;;;6.71;79.54
1401;BME280;46518;48.842;8.926;2024-03-08T11:16:43;96583.53;;;6.61;78.55
1401;BME280;46518;48.842;8.926;2024-03-08T11:19:25;96584.47;;;6.55;76.73
1401;BME280;46518;48.842;8.926;2024-03-08T11:22:02;96581.19;;;6.47;77.98
1401;BME280;46518;48.842;8.926;2024-03-08T11:24:38;96582.84;;;6.25;79.01
1401;BME280;46518;48.842;8.926;2024-03-08T11:27:12;96575.09;;;6.42;80.15
1401;BME280;46518;48.842;8.926;2024-03-08T11:29:41;96569.28;;;6.68;79.47
1401;BME280;46518;48.842;8.926;2024-03-08T11:32:11;96561.81;;;6.72;79.34
1401;BME280;46518;48.842;8.926;2024-03-08T11:34:41;96552.66;;;6.86;78.48
1401;BME280;46518;48.842;8.926;2024-03-08T11:37:12;96557.50;;;6.95;78.74
1401;BME280;46518;48.842;8.926;2024-03-08T11:39:46;96564.63;;;7.16;77.98
1401;BME280;46518;48.842;8.926;2024-03-08T11:42:15;96551.47;;;7.11;76.84
1401;BME280;46518;48.842;8.926;2024-03-08T11:44:44;96552.59;;;7.15;77.42
1401;BME280;46518;48.842;8.926;2024-03-08T11:47:14;96541.16;;;7.21;77.70
1401;BME280;46518;48.842;8.926;2024-03-08T11:49:43;96539.53;;;7.49;76.71
1401;BME280;46518;48.842;8.926;2024-03-08T11:52:13;96535.22;;;7.60;76.07
1401;BME280;46518;48.842;8.926;2024-03-08T11:54:42;96540.88;;;7.51;75.45
1401;BME280;46518;48.842;8.926;2024-03-08T11:57:11;96538.13;;;7.80;75.45
1401;BME280;46518;48.842;8.926;2024-03-08T11:59:39;96532.16;;;7.85;74.52
1401;BME280;46518;48.842;8.926;2024-03-08T12:02:08;96521.31;;;7.98;73.46
1401;BME280;46518;48.842;8.926;2024-03-08T12:04:41;96527.00;;;8.12;73.24
1401;BME280;46518;48.842;8.926;2024-03-08T12:07:13;96516.38;;;7.80;71.27
1401;BME280;46518;48.842;8.926;2024-03-08T12:09:41;96514.81;;;7.62;73.93
1401;BME280;46518;48.842;8.926;2024-03-08T12:12:13;96509.97;;;7.53;73.44
1401;BME280;46518;48.842;8.926;2024-03-08T12:14:43;96502.84;;;7.88;74.47
1401;BME280;46518;48.842;8.926;2024-03-08T12:17:12;96495.72;;;8.27;73.92
1401;BME280;46518;48.842;8.926;2024-03-08T12:19:47;96488.47;;;8.34;72.36
1401;BME280;46518;48.842;8.926;2024-03-08T12:22:16;96494.00;;;8.38;70.79
1401;BME280;46518;48.842;8.926;2024-03-08T12:24:44;96491.97;;;8.40;70.83
1401;BME280;46518;48.842;8.926;2024-03-08T12:27:20;96486.81;;;8.50;69.82
1401;BME280;46518;48.842;8.926;2024-03-08T12:29:48;96493.06;;;8.44;69.76
1401;BME280;46518;48.842;8.926;2024-03-08T12:32:18;96485.66;;;8.41;70.39
1401;BME280;46518;48.842;8.926;2024-03-08T12:34:53;96478.84;;;8.40;68.94
1401;BME280;46518;48.842;8.926;2024-03-08T12:37:21;96475.66;;;8.38;69.61
1401;BME280;46518;48.842;8.926;2024-03-08T12:39:50;96478.84;;;8.40;68.91
1401;BME280;46518;48.842;8.926;2024-03-08T12:42:19;96471.09;;;8.50;69.56
1401;BME280;46518;48.842;8.926;2024-03-08T12:44:48;96470.34;;;8.55;69.60
1401;BME280;46518;48.842;8.926;2024-03-08T12:47:20;96470.69;;;8.63;70.17
1401;BME280;46518;48.842;8.926;2024-03-08T12:49:48;96468.28;;;8.57;69.85
1401;BME280;46518;48.842;8.926;2024-03-08T12:52:18;96458.84;;;8.61;68.25
1401;BME280;46518;48.842;8.926;2024-03-08T12:54:47;96457.50;;;8.58;68.40
1401;BME280;46518;48.842;8.926;2024-03-08T12:57:16;96450.59;;;8.74;68.34
1401;BME280;46518;48.842;8.926;2024-03-08T12:59:45;96444.63;;;8.84;67.85
1401;BME280;46518;48.842;8.926;2024-03-08T13:02:13;96438.88;;;8.87;66.87
1401;BME280;46518;48.842;8.926;2024-03-08T13:04:43;96424.44;;;8.84;66.37
1401;BME280;46518;48.842;8.926;2024-03-08T13:07:11;96417.97;;;8.97;67.01
1401;BME280;46518;48.842;8.926;2024-03-08T13:09:45;96422.44;;;8.97;67.82
1401;BME280;46518;48.842;8.926;2024-03-08T13:12:13;96422.44;;;8.97;68.14
1401;BME280;46518;48.842;8.926;2024-03-08T13:14:42;96420.91;;;9.06;65.94
1401;BME280;46518;48.842;8.926;2024-03-08T13:17:10;96411.25;;;9.12;67.07
1401;BME280;46518;48.842;8.926;2024-03-08T13:19:39;96409.69;;;9.16;66.26
1401;BME280;46518;48.842;8.926;2024-03-08T13:22:08;96399.63;;;9.02;65.61
1401;BME280;46518;48.842;8.926;2024-03-08T13:24:39;96398.63;;;9.09;66.13
1401;BME280;46518;48.842;8.926;2024-03-08T13:27:13;96389.50;;;9.16;65.17
1401;BME280;46518;48.842;8.926;2024-03-08T13:29:52;96391.38;;;9.26;64.71
1401;BME280;46518;48.842;8.926;2024-03-08T13:32:20;96376.63;;;9.20;64.66
1401;BME280;46518;48.842;8.926;2024-03-08T13:34:49;96374.78;;;9.20;64.72
1401;BME280;46518;48.842;8.926;2024-03-08T13:37:18;96374.84;;;9.31;64.68